Time;durP1;ratioP1;P1;durP2;ratioP2;P2;SDS_P1;SDS_P2;PMS_P1;PMS_P2;Temp;Humidity;BMP_temperature;BMP_pressure;BME280_temperature;BME280_humidity;BME280_pressure;Samples;Min_cycle;Max_cycle;Signal;HPM_P1;HPM_P2
2022/12/17 13:08:15;;;;;;;19.98;8.98;;;-2.20;99.90;;;;;;4971472;28;20219;-62
2022/12/17 13:10:42;;;;;;;15.90;9.43;;;-2.10;99.90;;;;;;4970680;28;20205;-62
2022/12/17 13:13:17;;;;;;;24.20;12.52;;;-1.90;99.90;;;;;;4972599;28;20204;-62
2022/12/17 13:15:47;;;;;;;27.33;12.75;;;-1.90;99.90;;;;;;4973074;28;20735;-61
2022/12/17 13:18:25;;;;;;;22.50;11.10;;;-1.60;99.90;;;;;;4972385;28;20236;-62
2022/12/17 13:21:01;;;;;;;23.88;12.13;;;-1.50;99.90;;;;;;4972312;28;20203;-62
2022/12/17 13:23:34;;;;;;;21.00;13.48;;;-1.20;99.90;;;;;;4971833;28;20215;-62
2022/12/17 13:26:15;;;;;;;23.73;11.68;;;-1.20;99.90;;;;;;4972452;28;20201;-62
2022/12/17 13:28:42;;;;;;;22.52;11.85;;;-1.30;99.90;;;;;;4973509;28;20216;-62
2022/12/17 13:31:16;;;;;;;18.55;11.07;;;-1.50;99.90;;;;;;4990310;28;20208;-63
2022/12/17 13:33:50;;;;;;;30.60;12.32;;;-1.70;99.90;;;;;;4992131;28;20223;-62
2022/12/17 13:36:24;;;;;;;23.92;12.10;;;-1.90;99.90;;;;;;4989013;28;20226;-62
2022/12/17 13:38:54;;;;;;;24.90;12.52;;;-2.10;99.90;;;;;;4988081;28;20235;-62
2022/12/17 13:41:27;;;;;;;25.95;11.30;;;-2.30;99.90;;;;;;4998490;28;20203;-62
2022/12/17 13:43:56;;;;;;;23.83;10.93;;;-2.40;99.90;;;;;;4991875;28;20200;-62
2022/12/17 13:46:24;;;;;;;27.38;12.57;;;-2.60;99.90;;;;;;4991430;28;20238;-62
2022/12/17 13:48:58;;;;;;;21.13;12.25;;;-2.80;99.90;;;;;;4991049;28;20223;-62
2022/12/17 13:51:27;;;;;;;21.63;12.65;;;-2.90;99.90;;;;;;4991168;28;20211;-63
2022/12/17 13:53:55;;;;;;;19.35;11.18;;;-3.00;99.90;;;;;;4991421;28;20211;-62
2022/12/17 13:56:24;;;;;;;27.10;13.48;;;-3.10;99.90;;;;;;4991411;28;20227;-62
2022/12/17 13:58:52;;;;;;;22.15;10.93;;;-3.20;99.90;;;;;;4991429;28;20706;-61
2022/12/17 14:01:19;;;;;;;27.33;13.93;;;-3.20;99.90;;;;;;4989836;28;20207;-62
2022/12/17 14:03:50;;;;;;;25.33;12.50;;;-3.30;99.90;;;;;;4989983;28;20460;-62
2022/12/17 14:06:19;;;;;;;30.15;12.00;;;-3.40;99.90;;;;;;4970312;28;20207;-62
2022/12/17 14:08:48;;;;;;;23.58;12.63;;;-3.60;99.90;;;;;;4972241;28;20229;-62
2022/12/17 14:14:00;;;;;;;24.00;14.85;;;-3.70;99.90;;;;;;4970934;28;20278;-62
2022/12/17 14:16:27;;;;;;;20.23;11.75;;;-3.80;99.90;;;;;;4971728;28;20251;-62
2022/12/17 14:18:56;;;;;;;34.22;14.10;;;-3.90;99.90;;;;;;4971606;28;20238;-62
2022/12/17 14:21:25;;;;;;;23.63;13.73;;;-3.90;99.90;;;;;;4971119;28;20216;-62
2022/12/17 14:23:53;;;;;;;38.15;15.00;;;-3.90;99.90;;;;;;4971716;28;20706;-62
2022/12/17 14:26:21;;;;;;;32.03;13.00;;;-4.00;99.90;;;;;;4971162;28;20207;-63
2022/12/17 14:28:49;;;;;;;26.75;13.57;;;-4.00;99.90;;;;;;4970420;28;20318;-62
2022/12/17 14:31:19;;;;;;;24.55;13.77;;;-4.10;99.90;;;;;;4971093;28;20208;-62
2022/12/17 14:33:46;;;;;;;28.60;13.90;;;-4.20;99.90;;;;;;4971430;28;20207;-62
2022/12/17 14:36:19;;;;;;;32.33;11.93;;;-4.20;99.90;;;;;;4970617;28;20250;-62
2022/12/17 14:38:53;;;;;;;26.27;12.70;;;-4.30;99.90;;;;;;4971530;28;20224;-62
2022/12/17 14:44:19;;;;;;;20.15;10.52;;;-4.40;99.90;;;;;;4947167;28;20230;-61
2022/12/17 14:46:47;;;;;;;21.15;11.55;;;-4.50;99.90;;;;;;4971134;28;20199;-62
2022/12/17 14:49:18;;;;;;;23.20;14.07;;;-4.60;99.90;;;;;;4971455;28;20221;-62
2022/12/17 14:51:45;;;;;;;18.40;11.73;;;-4.70;99.90;;;;;;4970006;28;20215;-61
2022/12/17 14:54:27;;;;;;;23.95;12.18;;;-4.90;99.90;;;;;;4970922;28;20499;-61
2022/12/17 14:56:56;;;;;;;25.25;11.25;;;-5.10;99.90;;;;;;4971140;28;20220;-61
2022/12/17 14:59:25;;;;;;;23.70;11.02;;;-5.10;99.90;;;;;;4970639;28;20215;-61
2022/12/17 15:01:53;;;;;;;22.42;11.15;;;-5.20;99.90;;;;;;4970877;28;20210;-62
2022/12/17 15:04:21;;;;;;;38.22;12.15;;;-5.30;99.90;;;;;;4970508;28;20206;-62
2022/12/17 15:06:48;;;;;;;34.42;13.90;;;-5.30;99.90;;;;;;4971054;28;20216;-62
2022/12/17 15:09:15;;;;;;;21.30;12.30;;;-5.40;99.90;;;;;;4970910;28;20270;-62
2022/12/17 15:11:43;;;;;;;30.65;13.38;;;-5.50;99.90;;;;;;4970750;28;20255;-62
2022/12/17 15:14:10;;;;;;;23.60;11.32;;;-5.60;99.90;;;;;;4970688;28;20212;-61
2022/12/17 15:16:37;;;;;;;26.30;11.85;;;-5.70;99.90;;;;;;4970437;28;20613;-63
2022/12/17 15:19:03;;;;;;;26.75;14.02;;;-5.80;99.90;;;;;;4970973;28;20200;-62
2022/12/17 15:21:30;;;;;;;24.10;12.52;;;-5.90;99.90;;;;;;4971524;28;20215;-62
2022/12/17 15:23:57;;;;;;;24.92;13.18;;;-6.00;99.90;;;;;;4990374;28;20225;-62
2022/12/17 15:26:24;;;;;;;25.10;13.73;;;-6.10;99.90;;;;;;4994307;28;20205;-62
2022/12/17 15:28:52;;;;;;;22.70;10.95;;;-6.20;99.90;;;;;;4993831;28;20219;-62
2022/12/17 15:31:18;;;;;;;27.98;11.55;;;-6.30;99.90;;;;;;4994016;28;20207;-62
2022/12/17 15:33:45;;;;;;;25.08;12.88;;;-6.30;99.90;;;;;;4994329;28;20211;-62
2022/12/17 15:36:12;;;;;;;22.17;12.20;;;-6.40;99.90;;;;;;4998740;28;20209;-62
2022/12/17 15:38:39;;;;;;;39.03;15.93;;;-6.50;99.90;;;;;;5013899;28;20223;-62
2022/12/17 15:43:47;;;;;;;25.52;11.52;;;-6.60;99.90;;;;;;5005600;28;20674;-63
2022/12/17 15:46:15;;;;;;;27.27;10.68;;;-6.80;99.90;;;;;;4994359;28;20211;-63
2022/12/17 15:48:42;;;;;;;33.38;14.90;;;-6.90;99.90;;;;;;4994921;28;20800;-63
2022/12/17 15:51:09;;;;;;;18.75;9.90;;;-7.00;99.90;;;;;;4993705;28;20218;-62
2022/12/17 15:53:36;;;;;;;23.38;11.60;;;-7.10;99.90;;;;;;4994730;28;20215;-63
2022/12/17 15:56:04;;;;;;;30.88;10.32;;;-7.30;99.90;;;;;;4994093;28;20710;-62
2022/12/17 15:58:31;;;;;;;19.80;11.20;;;-7.40;99.90;;;;;;4994851;28;20240;-63
2022/12/17 16:00:57;;;;;;;22.38;11.10;;;-7.50;99.90;;;;;;4993896;28;20211;-62
2022/12/17 16:03:25;;;;;;;25.23;11.98;;;-7.60;99.90;;;;;;4994331;28;20592;-63
2022/12/17 16:05:53;;;;;;;25.25;11.40;;;-7.60;99.90;;;;;;4994540;28;20217;-62
2022/12/17 16:08:19;;;;;;;16.23;9.77;;;-7.70;99.90;;;;;;4993975;28;20231;-62
2022/12/17 16:10:46;;;;;;;21.92;10.98;;;-7.70;99.90;;;;;;4993913;28;20205;-63
2022/12/17 16:13:14;;;;;;;16.10;10.90;;;-7.80;99.90;;;;;;4993821;28;20683;-62
2022/12/17 16:15:41;;;;;;;19.33;10.15;;;-7.80;99.90;;;;;;4993090;28;20255;-62
2022/12/17 16:18:08;;;;;;;14.50;10.68;;;-7.90;99.90;;;;;;4992344;28;20227;-62
2022/12/17 16:20:36;;;;;;;21.15;10.82;;;-8.00;99.90;;;;;;4993672;28;20826;-63
2022/12/17 16:23:03;;;;;;;22.40;11.25;;;-8.10;99.90;;;;;;5000933;28;20198;-62
2022/12/17 16:25:30;;;;;;;18.27;8.75;;;-8.20;99.90;;;;;;5011279;28;20202;-63
2022/12/17 16:27:56;;;;;;;19.58;10.05;;;-8.20;99.90;;;;;;5012716;28;20227;-62
2022/12/17 16:30:23;;;;;;;15.93;8.38;;;-8.30;99.90;;;;;;5011395;28;20204;-62
2022/12/17 16:32:50;;;;;;;18.17;10.10;;;-8.30;99.90;;;;;;5012582;28;20205;-62
2022/12/17 16:35:17;;;;;;;21.20;9.93;;;-8.30;99.90;;;;;;5012523;28;20203;-62
2022/12/17 16:37:45;;;;;;;10.98;8.40;;;-8.30;99.90;;;;;;5011389;28;20721;-62
2022/12/17 16:40:12;;;;;;;16.15;7.45;;;-8.50;99.90;;;;;;5012282;28;20205;-60
2022/12/17 16:42:39;;;;;;;18.92;9.55;;;-8.50;99.90;;;;;;4999833;28;20585;-61
2022/12/17 16:45:06;;;;;;;21.55;9.85;;;-8.60;99.90;;;;;;4992622;28;20210;-62
2022/12/17 16:47:33;;;;;;;22.48;11.38;;;-8.60;99.90;;;;;;4992928;28;20992;-63
2022/12/17 16:50:00;;;;;;;18.50;9.43;;;-8.70;99.90;;;;;;4992134;28;20207;-61
2022/12/17 16:52:27;;;;;;;12.07;9.20;;;-8.70;99.90;;;;;;4992202;28;20217;-62
2022/12/17 16:54:55;;;;;;;15.20;8.88;;;-8.70;99.90;;;;;;4992588;28;20199;-63
2022/12/17 16:57:22;;;;;;;19.55;9.07;;;-8.70;99.90;;;;;;4990535;28;20236;-63
2022/12/17 16:59:48;;;;;;;24.02;10.38;;;-8.80;99.90;;;;;;4992376;28;20210;-63
2022/12/17 17:02:16;;;;;;;22.80;11.38;;;-8.80;99.90;;;;;;4991620;28;20214;-63
2022/12/17 17:04:42;;;;;;;9.32;7.05;;;-8.80;99.90;;;;;;4993011;28;20201;-63
2022/12/17 17:07:09;;;;;;;22.92;11.40;;;-8.90;99.90;;;;;;4991978;28;20228;-63
2022/12/17 17:09:37;;;;;;;11.43;6.93;;;-9.00;99.90;;;;;;4990685;28;20696;-62
2022/12/17 17:12:07;;;;;;;14.75;7.50;;;-9.00;99.90;;;;;;4991853;28;20223;-63
2022/12/17 17:14:34;;;;;;;13.15;8.45;;;-9.00;99.90;;;;;;4991736;28;20313;-63
2022/12/17 17:17:01;;;;;;;21.27;8.50;;;-9.10;99.90;;;;;;4992179;28;20226;-63
2022/12/17 17:19:27;;;;;;;16.73;9.43;;;-9.10;99.90;;;;;;4992141;28;20687;-63
2022/12/17 17:21:54;;;;;;;19.90;10.20;;;-9.20;99.90;;;;;;4991845;28;20207;-63
2022/12/17 17:24:24;;;;;;;11.77;7.78;;;-9.20;99.90;;;;;;4992117;28;20209;-63
2022/12/17 17:26:52;;;;;;;20.48;8.18;;;-9.30;99.90;;;;;;4991492;28;20224;-62
2022/12/17 17:29:20;;;;;;;8.20;6.97;;;-9.30;99.90;;;;;;4992140;28;20207;-62
2022/12/17 17:31:46;;;;;;;20.98;8.88;;;-9.30;99.90;;;;;;4991693;28;20215;-63
2022/12/17 17:34:15;;;;;;;9.07;6.30;;;-9.40;99.90;;;;;;4992188;28;20215;-62
2022/12/17 17:36:42;;;;;;;13.70;7.03;;;-9.40;99.90;;;;;;4991811;28;20219;-62
2022/12/17 17:39:09;;;;;;;13.93;7.20;;;-9.50;99.90;;;;;;4989195;28;20211;-62
2022/12/17 17:41:36;;;;;;;8.85;7.00;;;-9.50;99.90;;;;;;5004809;28;20598;-62
2022/12/17 17:44:05;;;;;;;17.23;6.95;;;-9.50;99.90;;;;;;5009643;28;20889;-62
2022/12/17 17:46:34;;;;;;;14.85;8.10;;;-9.60;99.90;;;;;;5010229;28;20203;-62
2022/12/17 17:49:03;;;;;;;9.13;6.78;;;-9.60;99.90;;;;;;5010048;28;20211;-62
2022/12/17 17:51:32;;;;;;;9.35;6.32;;;-9.60;99.90;;;;;;5008556;28;20217;-62
2022/12/17 17:54:01;;;;;;;7.57;6.78;;;-9.60;99.90;;;;;;5010332;28;20592;-61
2022/12/17 17:56:30;;;;;;;11.43;6.15;;;-9.70;99.90;;;;;;5007105;28;20203;-62
2022/12/17 17:59:01;;;;;;;13.82;9.30;;;-9.70;99.90;;;;;;5007588;28;20226;-62
2022/12/17 18:01:29;;;;;;;20.50;9.18;;;-9.70;99.90;;;;;;5006870;28;20606;-62
2022/12/17 18:03:59;;;;;;;10.45;6.00;;;-9.70;99.90;;;;;;5007493;28;20217;-62
2022/12/17 18:06:26;;;;;;;19.42;9.57;;;-9.70;99.90;;;;;;5007712;28;20214;-62
2022/12/17 18:08:56;;;;;;;16.55;9.90;;;-9.70;99.90;;;;;;5008074;28;20232;-62
2022/12/17 18:11:23;;;;;;;14.15;9.00;;;-9.70;99.90;;;;;;5007372;28;20206;-62
2022/12/17 18:13:56;;;;;;;21.33;8.45;;;-9.70;99.90;;;;;;5008594;28;20270;-62
2022/12/17 18:16:25;;;;;;;18.55;9.80;;;-9.70;99.90;;;;;;5005611;28;20204;-62
2022/12/17 18:18:54;;;;;;;12.98;5.72;;;-9.60;99.90;;;;;;4969775;28;20633;-62
2022/12/17 18:21:24;;;;;;;17.33;7.30;;;-9.60;99.90;;;;;;4969274;28;20615;-62
2022/12/17 18:23:55;;;;;;;10.70;9.05;;;-9.70;99.90;;;;;;4968983;28;20235;-62
2022/12/17 18:26:24;;;;;;;31.42;10.55;;;-9.60;99.90;;;;;;4968993;28;20211;-62
2022/12/17 18:28:50;;;;;;;13.93;8.27;;;-9.60;99.90;;;;;;4975415;28;20285;-62
2022/12/17 18:31:20;;;;;;;17.60;9.63;;;-9.50;99.90;;;;;;4987343;28;20241;-62
2022/12/17 18:33:49;;;;;;;8.90;7.65;;;-9.50;99.90;;;;;;4988982;28;20203;-62
2022/12/17 18:36:18;;;;;;;28.48;8.30;;;-9.40;99.90;;;;;;4988509;28;20204;-62
2022/12/17 18:38:46;;;;;;;26.15;12.23;;;-9.30;99.90;;;;;;4988538;28;20227;-61
2022/12/17 18:44:02;;;;;;;15.60;10.43;;;-9.30;99.90;;;;;;4987565;28;20312;-62
2022/12/17 18:46:30;;;;;;;14.43;8.57;;;-9.10;99.90;;;;;;4989267;28;20336;-62
2022/12/17 18:48:57;;;;;;;15.60;10.00;;;-9.10;99.90;;;;;;4986882;28;20466;-62
2022/12/17 18:51:25;;;;;;;14.60;8.07;;;-9.10;99.90;;;;;;4997392;28;20207;-62
2022/12/17 18:53:56;;;;;;;13.45;10.40;;;-9.00;99.90;;;;;;4989006;28;20205;-62
2022/12/17 18:56:23;;;;;;;24.70;9.63;;;-9.00;99.90;;;;;;4987348;28;20203;-61
2022/12/17 18:58:52;;;;;;;24.55;11.15;;;-8.90;99.90;;;;;;4987025;28;20699;-62
2022/12/17 19:01:21;;;;;;;17.10;9.10;;;-8.90;99.90;;;;;;4988425;28;20208;-62
2022/12/17 19:03:47;;;;;;;22.75;9.70;;;-8.90;99.90;;;;;;4988094;28;20208;-62
2022/12/17 19:06:14;;;;;;;15.07;9.43;;;-8.80;99.90;;;;;;4987749;28;20211;-62
2022/12/17 19:08:41;;;;;;;15.77;10.15;;;-8.80;99.90;;;;;;4988530;28;20606;-62
2022/12/17 19:11:11;;;;;;;14.63;8.77;;;-8.80;99.90;;;;;;4982933;28;20557;-62
2022/12/17 19:13:38;;;;;;;12.20;7.35;;;-8.80;99.90;;;;;;4995111;28;20228;-62
2022/12/17 19:16:08;;;;;;;21.23;9.93;;;-8.80;99.90;;;;;;5006773;28;20211;-62
2022/12/17 19:18:34;;;;;;;17.17;9.32;;;-8.90;99.90;;;;;;5006048;28;20224;-62
2022/12/17 19:21:02;;;;;;;24.30;11.13;;;-9.00;99.90;;;;;;5005219;28;20206;-61
2022/12/17 19:23:31;;;;;;;25.10;10.65;;;-9.00;99.90;;;;;;5006968;28;20211;-62
2022/12/17 19:26:04;;;;;;;15.30;8.38;;;-9.00;99.90;;;;;;5006099;28;20754;-62
2022/12/17 19:28:32;;;;;;;24.08;12.30;;;-9.10;99.90;;;;;;5006691;28;20220;-62
2022/12/17 19:30:59;;;;;;;15.10;10.38;;;-9.10;99.90;;;;;;5006328;28;20209;-62
2022/12/17 19:33:26;;;;;;;22.48;9.90;;;-9.20;99.90;;;;;;5006801;28;20214;-62
2022/12/17 19:35:59;;;;;;;16.42;9.73;;;-9.20;99.90;;;;;;5007052;28;20210;-62
2022/12/17 19:38:26;;;;;;;26.70;9.20;;;-9.20;99.90;;;;;;5006230;28;20232;-62
2022/12/17 19:40:52;;;;;;;25.35;8.88;;;-9.30;99.90;;;;;;5006696;28;20206;-62
2022/12/17 19:43:19;;;;;;;15.90;9.30;;;-9.30;99.90;;;;;;5006084;28;20211;-62
2022/12/17 19:45:47;;;;;;;15.32;10.10;;;-9.40;99.90;;;;;;4982753;28;20673;-62
2022/12/17 19:48:15;;;;;;;13.23;10.43;;;-9.40;99.90;;;;;;4969407;28;20221;-63
2022/12/17 19:50:42;;;;;;;16.70;10.70;;;-9.50;99.90;;;;;;4968200;28;20257;-62
2022/12/17 19:53:09;;;;;;;16.33;9.65;;;-9.50;99.90;;;;;;4969894;28;20211;-64
2022/12/17 19:55:36;;;;;;;13.20;11.73;;;-9.50;99.90;;;;;;4969657;28;20667;-62
2022/12/17 19:58:02;;;;;;;27.58;13.13;;;-9.60;99.90;;;;;;4969604;28;20239;-62
2022/12/17 20:00:29;;;;;;;14.57;9.40;;;-9.70;99.90;;;;;;4970101;28;20242;-62
2022/12/17 20:02:57;;;;;;;10.80;8.63;;;-9.70;99.90;;;;;;4971344;28;20222;-60
2022/12/17 20:05:24;;;;;;;10.30;6.60;;;-9.80;99.90;;;;;;4970252;28;20211;-62
2022/12/17 20:07:51;;;;;;;17.92;10.82;;;-9.80;99.90;;;;;;4974938;28;20219;-61
2022/12/17 20:10:18;;;;;;;14.40;9.45;;;-9.90;99.90;;;;;;5008309;28;20215;-61
2022/12/17 20:12:45;;;;;;;16.57;9.40;;;-10.00;99.90;;;;;;4819529;28;5557538;-61
2022/12/17 20:15:11;;;;;;;12.52;7.85;;;-10.00;99.90;;;;;;5012529;28;20204;-62
2022/12/17 20:17:38;;;;;;;22.25;9.63;;;-10.10;99.90;;;;;;5013886;28;20724;-62
2022/12/17 20:20:08;;;;;;;16.35;7.88;;;-10.00;99.90;;;;;;5009397;28;20295;-62
2022/12/17 20:22:34;;;;;;;12.65;8.70;;;-10.10;99.90;;;;;;5012764;28;20206;-62
2022/12/17 20:25:03;;;;;;;12.23;8.00;;;-10.10;99.90;;;;;;5011577;28;20211;-63
2022/12/17 20:27:30;;;;;;;27.75;11.45;;;-10.10;99.90;;;;;;4994066;28;20334;-63
2022/12/17 20:29:57;;;;;;;22.67;12.85;;;-10.10;99.90;;;;;;4995410;28;20219;-63
2022/12/17 20:32:24;;;;;;;26.15;8.43;;;-10.10;99.90;;;;;;4990906;28;20203;-63
2022/12/17 20:34:51;;;;;;;14.63;7.28;;;-10.20;99.90;;;;;;4992468;28;20207;-63
2022/12/17 20:37:19;;;;;;;10.93;7.10;;;-10.20;99.90;;;;;;4992576;28;20274;-61
2022/12/17 20:39:45;;;;;;;15.75;7.22;;;-10.20;99.90;;;;;;4993112;28;20208;-62
2022/12/17 20:42:12;;;;;;;11.75;9.73;;;-10.30;99.90;;;;;;4973074;28;20204;-62
2022/12/17 20:44:39;;;;;;;16.23;10.02;;;-10.30;99.90;;;;;;4974536;28;20199;-62
2022/12/17 20:47:06;;;;;;;5.38;4.57;;;-10.40;99.90;;;;;;4981049;28;20219;-61
2022/12/17 20:49:33;;;;;;;17.35;9.63;;;-10.40;99.90;;;;;;4992831;28;20742;-61
2022/12/17 20:51:59;;;;;;;14.60;5.95;;;-10.50;99.90;;;;;;4991646;28;20203;-62
2022/12/17 20:54:27;;;;;;;8.32;6.30;;;-10.50;99.90;;;;;;4992369;28;20208;-62
2022/12/17 20:56:54;;;;;;;18.10;8.60;;;-10.50;99.90;;;;;;4992399;28;20206;-61
2022/12/17 20:59:21;;;;;;;10.43;8.57;;;-10.50;99.90;;;;;;4992286;28;20237;-61
2022/12/17 21:01:48;;;;;;;14.18;6.68;;;-10.50;99.90;;;;;;4991361;28;20211;-61
2022/12/17 21:04:15;;;;;;;13.93;8.52;;;-10.50;99.90;;;;;;4991828;28;20294;-61
2022/12/17 21:06:44;;;;;;;30.48;10.32;;;-10.60;99.90;;;;;;4992756;28;20204;-61
2022/12/17 21:09:12;;;;;;;15.43;8.07;;;-10.60;99.90;;;;;;4992004;28;20207;-62
2022/12/17 21:11:41;;;;;;;16.60;10.48;;;-10.50;99.90;;;;;;4991524;28;20636;-62
2022/12/17 21:14:09;;;;;;;13.68;7.50;;;-10.50;99.90;;;;;;4992212;28;20218;-61
2022/12/17 21:16:37;;;;;;;11.07;6.82;;;-10.60;99.90;;;;;;4991290;28;20200;-61
2022/12/17 21:19:05;;;;;;;8.60;5.20;;;-10.60;99.90;;;;;;4992004;28;20223;-61
2022/12/17 21:21:34;;;;;;;8.77;5.18;;;-10.60;99.90;;;;;;4991552;28;20207;-61
2022/12/17 21:24:01;;;;;;;13.73;6.05;;;-10.60;99.90;;;;;;4991399;28;20203;-60
2022/12/17 21:26:31;;;;;;;9.23;8.32;;;-10.60;99.90;;;;;;4991404;28;20214;-62
2022/12/17 21:29:01;;;;;;;13.57;5.90;;;-10.60;99.90;;;;;;4991327;28;20224;-62
2022/12/17 21:31:31;;;;;;;10.82;7.13;;;-10.60;99.90;;;;;;4989691;28;20212;-61
2022/12/17 21:34:01;;;;;;;14.15;6.22;;;-10.60;99.90;;;;;;4991941;28;20204;-61
2022/12/17 21:36:29;;;;;;;11.38;5.85;;;-10.60;99.90;;;;;;4991689;28;20711;-62
2022/12/17 21:38:57;;;;;;;8.23;5.38;;;-10.60;99.90;;;;;;4990754;28;20262;-61
2022/12/17 21:41:26;;;;;;;11.07;8.25;;;-10.70;99.90;;;;;;4990135;28;20303;-61
2022/12/17 21:43:54;;;;;;;7.25;6.00;;;-10.70;99.90;;;;;;4989764;28;20227;-61
2022/12/17 21:46:22;;;;;;;15.55;7.28;;;-10.70;99.90;;;;;;4990476;28;20211;-62
2022/12/17 21:48:50;;;;;;;10.48;7.07;;;-10.70;99.90;;;;;;4991341;28;20922;-60
2022/12/17 21:51:17;;;;;;;8.80;6.63;;;-10.70;99.90;;;;;;4989594;28;20207;-61
2022/12/17 21:53:44;;;;;;;10.38;7.40;;;-10.70;99.90;;;;;;4990140;28;20196;-61
2022/12/17 21:56:14;;;;;;;17.50;8.38;;;-10.80;99.90;;;;;;5000455;28;20286;-60
2022/12/17 21:58:41;;;;;;;8.25;7.65;;;-10.80;99.90;;;;;;5010326;28;20330;-61
2022/12/17 22:01:10;;;;;;;12.38;8.80;;;-10.80;99.90;;;;;;5009135;28;20213;-61
2022/12/17 22:03:38;;;;;;;7.35;4.03;;;-10.80;99.90;;;;;;5010081;28;20297;-62
2022/12/17 22:06:07;;;;;;;11.57;6.53;;;-10.90;99.90;;;;;;5009984;28;20214;-61
2022/12/17 22:08:34;;;;;;;11.50;7.07;;;-10.90;99.90;;;;;;5009820;28;20728;-60
2022/12/17 22:11:01;;;;;;;11.25;8.18;;;-10.90;99.90;;;;;;5009348;28;20725;-61
2022/12/17 22:16:12;;;;;;;8.02;6.25;;;-10.90;99.90;;;;;;5011185;28;20197;-62
2022/12/17 22:18:40;;;;;;;6.63;5.38;;;-11.00;99.90;;;;;;5011343;28;20231;-62
2022/12/17 22:21:07;;;;;;;10.32;6.15;;;-11.00;99.90;;;;;;5010873;28;20282;-62
2022/12/17 22:23:33;;;;;;;7.20;5.72;;;-11.00;99.90;;;;;;5010800;28;20202;-62
2022/12/17 22:26:00;;;;;;;14.88;7.28;;;-11.00;99.90;;;;;;5011508;28;20202;-62
2022/12/17 22:28:27;;;;;;;7.00;5.97;;;-11.00;99.90;;;;;;5010908;28;20226;-61
2022/12/17 22:33:39;;;;;;;7.43;4.93;;;-11.10;99.90;;;;;;5010640;28;20685;-62
2022/12/17 22:36:07;;;;;;;12.30;6.43;;;-11.00;99.90;;;;;;5010768;28;20207;-62
2022/12/17 22:38:33;;;;;;;5.57;4.55;;;-11.00;99.90;;;;;;5010795;28;20280;-62
2022/12/17 22:41:05;;;;;;;4.40;4.00;;;-11.00;99.90;;;;;;5009643;28;20662;-61
2022/12/17 22:43:31;;;;;;;4.10;3.80;;;-11.00;99.90;;;;;;5010370;28;20261;-61
2022/12/17 22:45:59;;;;;;;10.52;6.68;;;-11.10;99.90;;;;;;5010786;28;20203;-62
2022/12/17 22:48:26;;;;;;;5.32;3.60;;;-11.10;99.90;;;;;;5009997;28;20713;-62
2022/12/17 22:50:54;;;;;;;8.93;7.10;;;-11.00;99.90;;;;;;5003444;28;20206;-62
2022/12/17 22:53:21;;;;;;;6.63;5.38;;;-11.00;99.90;;;;;;4990905;28;20210;-62
2022/12/17 22:55:48;;;;;;;6.10;5.43;;;-11.00;99.90;;;;;;4991367;28;20211;-62
2022/12/17 22:58:15;;;;;;;6.10;4.50;;;-11.00;99.90;;;;;;4990949;28;20230;-62
2022/12/17 23:00:41;;;;;;;4.20;3.53;;;-11.00;99.90;;;;;;4990323;28;20239;-62
2022/12/17 23:03:08;;;;;;;17.00;4.40;;;-11.10;99.90;;;;;;4991043;28;20215;-62
2022/12/17 23:05:35;;;;;;;15.25;6.78;;;-11.10;99.90;;;;;;4990897;28;20204;-62
2022/12/17 23:08:03;;;;;;;7.90;5.00;;;-11.10;99.90;;;;;;4991188;28;20780;-61
2022/12/17 23:10:30;;;;;;;6.47;5.22;;;-11.10;99.90;;;;;;4990170;28;20210;-60
2022/12/17 23:12:57;;;;;;;10.80;4.63;;;-11.10;99.90;;;;;;4990663;28;20212;-62
2022/12/17 23:15:27;;;;;;;7.35;4.80;;;-11.10;99.90;;;;;;4991118;28;20207;-60
2022/12/17 23:17:55;;;;;;;8.23;4.45;;;-11.10;99.90;;;;;;4991435;28;20303;-62
2022/12/17 23:20:23;;;;;;;9.02;5.10;;;-11.10;99.90;;;;;;4990813;28;20203;-61
2022/12/17 23:22:49;;;;;;;4.38;3.92;;;-11.10;99.90;;;;;;4991063;28;20207;-61
2022/12/17 23:25:18;;;;;;;5.90;5.22;;;-11.10;99.90;;;;;;4990840;28;20219;-62
2022/12/17 23:27:45;;;;;;;8.60;6.07;;;-11.10;99.90;;;;;;4991027;28;20235;-61
2022/12/17 23:30:13;;;;;;;6.00;5.45;;;-11.10;99.90;;;;;;4990665;28;20205;-61
2022/12/17 23:32:41;;;;;;;8.52;7.00;;;-11.10;99.90;;;;;;4991209;28;20670;-62
2022/12/17 23:35:08;;;;;;;8.45;5.90;;;-11.10;99.90;;;;;;4990800;28;20214;-62
2022/12/17 23:37:35;;;;;;;10.07;5.35;;;-11.10;99.90;;;;;;4990773;28;20227;-62
2022/12/17 23:40:02;;;;;;;6.15;3.72;;;-11.10;99.90;;;;;;4990649;28;20234;-63
2022/12/17 23:42:30;;;;;;;9.95;5.05;;;-11.10;99.90;;;;;;4989957;28;20239;-63
2022/12/17 23:44:56;;;;;;;9.75;6.90;;;-11.10;99.90;;;;;;4990777;28;20199;-62
2022/12/17 23:47:23;;;;;;;5.53;5.03;;;-11.10;99.90;;;;;;4993972;28;20231;-61
2022/12/17 23:49:50;;;;;;;4.78;4.38;;;-11.10;99.90;;;;;;4994595;28;20195;-63
2022/12/17 23:52:17;;;;;;;5.90;4.30;;;-11.10;99.90;;;;;;4993904;28;20203;-61
2022/12/17 23:54:43;;;;;;;8.32;5.00;;;-11.20;99.90;;;;;;4994269;28;20207;-59
2022/12/17 23:57:10;;;;;;;8.93;4.05;;;-11.20;99.90;;;;;;4994111;28;20224;-63
2022/12/17 23:59:38;;;;;;;12.30;5.13;;;-11.10;99.90;;;;;;4994288;28;20227;-63
